Time;durP1;ratioP1;P1;durP2;ratioP2;P2;SDS_P1;SDS_P2;PMS_P1;PMS_P2;Temp;Humidity;BMP_temperature;BMP_pressure;BME280_temperature;BME280_humidity;BME280_pressure;Samples;Min_cycle;Max_cycle;Signal;HPM_P1;HPM_P2
2021/12/16 00:08:04;;;;;;;19.95;11.43;;;;;;;;;;5003227;28;20128;-62
2021/12/16 00:10:37;;;;;;;20.98;10.95;;;;;;;;;;5004575;28;20088;-62
2021/12/16 00:34:47;;;;;;;34.30;14.15;;;;;;;;;;5005735;28;20504;-62
2021/12/16 00:37:13;;;;;;;27.65;12.88;;;;;;;;;;5005436;28;20128;-61
2021/12/16 00:39:41;;;;;;;26.38;13.10;;;;;;;;;;5005008;28;20677;-62
2021/12/16 00:42:13;;;;;;;25.40;12.77;;;;;;;;;;5055052;28;20121;-61
2021/12/16 00:49:39;;;;;;;26.63;12.68;;;;;;;;;;5089482;28;20054;-61
2021/12/16 00:55:02;;;;;;;36.90;14.40;;;;;;;;;;5087787;28;20036;-62
2021/12/16 00:57:28;;;;;;;30.55;14.20;;;;;;;;;;5084841;28;20052;-60
2021/12/16 00:59:56;;;;;;;26.92;13.40;;;;;;;;;;5087719;28;20036;-61
2021/12/16 01:41:00;;;;;;;27.13;13.43;;;;;;;;;;5078738;28;20493;-61
2021/12/16 01:51:37;;;;;;;34.13;14.15;;;;;;;;;;5077308;28;20524;-62
2021/12/16 01:57:06;;;;;;;26.00;12.40;;;;;;;;;;5081159;28;20375;-61
2021/12/16 01:59:35;;;;;;;24.83;12.90;;;;;;;;;;5081737;28;20478;-62
2021/12/16 02:02:31;;;;;;;25.85;13.25;;;;;;;;;;5081897;28;20044;-62
2021/12/16 02:10:15;;;;;;;27.77;13.55;;;;;;;;;;5088434;28;20109;-62
2021/12/16 02:29:25;;;;;;;32.05;15.07;;;;;;;;;;5086771;28;20039;-62
2021/12/16 02:34:46;;;;;;;39.33;16.38;;;;;;;;;;5086775;28;20094;-61
2021/12/16 02:37:20;;;;;;;32.53;15.65;;;;;;;;;;5081406;28;20463;-61
2021/12/16 02:39:47;;;;;;;37.45;17.08;;;;;;;;;;5086297;28;20132;-61
2021/12/16 02:42:17;;;;;;;31.58;16.15;;;;;;;;;;5085005;28;20050;-60
2021/12/16 02:50:03;;;;;;;35.88;16.90;;;;;;;;;;5084683;28;20043;-62
2021/12/16 02:52:29;;;;;;;38.92;17.10;;;;;;;;;;5083868;28;20051;-62
2021/12/16 02:54:55;;;;;;;33.80;16.25;;;;;;;;;;5085012;28;20486;-62
2021/12/16 02:57:22;;;;;;;32.53;17.40;;;;;;;;;;5085013;28;20044;-62
2021/12/16 02:59:50;;;;;;;46.28;18.23;;;;;;;;;;5084286;28;20153;-60
2021/12/16 03:02:18;;;;;;;38.92;17.95;;;;;;;;;;5086648;28;20043;-61
2021/12/16 03:04:46;;;;;;;37.30;17.50;;;;;;;;;;5086879;28;20043;-62
2021/12/16 03:07:14;;;;;;;29.90;16.42;;;;;;;;;;5088933;28;20405;-62
2021/12/16 03:18:05;;;;;;;35.75;17.50;;;;;;;;;;5090795;28;20050;-62
2021/12/16 03:31:37;;;;;;;29.00;15.70;;;;;;;;;;5012741;28;20181;-61
2021/12/16 03:36:47;;;;;;;37.15;17.17;;;;;;;;;;5010267;28;20112;-63
2021/12/16 03:39:13;;;;;;;33.47;16.80;;;;;;;;;;5013911;28;20072;-62
2021/12/16 03:41:39;;;;;;;30.45;17.10;;;;;;;;;;5007867;28;20073;-60
2021/12/16 03:44:09;;;;;;;38.70;17.58;;;;;;;;;;5010159;28;20155;-59
2021/12/16 03:46:37;;;;;;;35.97;17.08;;;;;;;;;;5008980;28;20073;-63
2021/12/16 03:49:09;;;;;;;32.30;16.98;;;;;;;;;;5003722;28;20093;-62
2021/12/16 03:51:41;;;;;;;33.53;15.65;;;;;;;;;;4989573;28;20061;-60
2021/12/16 03:54:12;;;;;;;32.53;17.60;;;;;;;;;;5012043;28;20048;-62
2021/12/16 03:56:39;;;;;;;29.17;15.97;;;;;;;;;;5051473;28;20041;-61
2021/12/16 03:59:05;;;;;;;30.63;16.60;;;;;;;;;;5086343;28;20199;-60
2021/12/16 04:01:32;;;;;;;30.83;16.55;;;;;;;;;;5086748;28;20551;-61
2021/12/16 04:03:58;;;;;;;28.10;16.08;;;;;;;;;;5089930;28;20032;-61
2021/12/16 04:06:25;;;;;;;27.83;16.23;;;;;;;;;;5088945;28;20044;-62
2021/12/16 04:08:52;;;;;;;30.95;16.55;;;;;;;;;;5089907;28;20683;-62
2021/12/16 04:11:23;;;;;;;30.75;16.02;;;;;;;;;;5088387;28;20050;-62
2021/12/16 04:13:58;;;;;;;32.42;17.25;;;;;;;;;;5084309;28;20402;-61
2021/12/16 04:16:32;;;;;;;31.52;17.08;;;;;;;;;;5089934;28;20107;-61
2021/12/16 04:18:59;;;;;;;27.75;16.25;;;;;;;;;;5083971;28;20098;-62
2021/12/16 04:21:27;;;;;;;33.78;17.48;;;;;;;;;;5083215;28;20128;-61
2021/12/16 04:23:54;;;;;;;30.20;17.77;;;;;;;;;;5083808;28;20051;-62
2021/12/16 04:26:21;;;;;;;34.45;17.85;;;;;;;;;;5086062;28;20039;-60
2021/12/16 04:28:47;;;;;;;35.78;17.42;;;;;;;;;;5086512;28;20043;-61
2021/12/16 04:31:13;;;;;;;31.17;17.75;;;;;;;;;;5087626;28;20040;-62
2021/12/16 04:33:39;;;;;;;34.28;17.15;;;;;;;;;;5084437;28;20085;-60
2021/12/16 04:36:09;;;;;;;32.90;17.35;;;;;;;;;;5093921;28;20044;-61
2021/12/16 04:38:37;;;;;;;27.67;16.58;;;;;;;;;;5076085;28;20037;-61
2021/12/16 04:41:05;;;;;;;29.65;16.73;;;;;;;;;;5086591;28;20040;-63
2021/12/16 04:43:39;;;;;;;32.42;16.25;;;;;;;;;;5083269;28;20059;-60
2021/12/16 04:46:09;;;;;;;25.60;16.10;;;;;;;;;;5080978;28;20483;-61
2021/12/16 04:48:36;;;;;;;38.03;17.60;;;;;;;;;;5089588;28;20417;-61
2021/12/16 04:51:04;;;;;;;29.63;16.58;;;;;;;;;;5089319;28;20039;-62
2021/12/16 04:53:30;;;;;;;31.20;17.48;;;;;;;;;;5089486;28;20059;-61
2021/12/16 04:55:56;;;;;;;28.45;15.80;;;;;;;;;;5088285;28;20044;-61
2021/12/16 04:58:22;;;;;;;24.58;14.88;;;;;;;;;;5088898;28;20062;-61
2021/12/16 05:00:49;;;;;;;26.52;14.98;;;;;;;;;;5089734;28;20385;-61
2021/12/16 05:03:15;;;;;;;30.38;16.52;;;;;;;;;;5089045;28;20851;-61
2021/12/16 05:05:41;;;;;;;30.13;15.23;;;;;;;;;;5087292;28;20040;-61
2021/12/16 05:08:07;;;;;;;30.27;16.20;;;;;;;;;;5086932;28;20027;-63
2021/12/16 05:10:36;;;;;;;28.85;15.65;;;;;;;;;;5088347;28;20045;-61
2021/12/16 05:13:04;;;;;;;32.95;16.48;;;;;;;;;;5086205;28;20040;-62
2021/12/16 05:15:34;;;;;;;30.83;17.55;;;;;;;;;;5086241;28;20063;-61
2021/12/16 05:18:02;;;;;;;32.70;16.25;;;;;;;;;;5086629;28;20401;-63
2021/12/16 05:20:30;;;;;;;29.85;16.05;;;;;;;;;;5089526;28;20044;-61
2021/12/16 05:25:58;;;;;;;35.35;18.13;;;;;;;;;;5087494;28;20146;-62
2021/12/16 05:28:25;;;;;;;30.83;17.02;;;;;;;;;;5086019;28;20130;-62
2021/12/16 05:30:51;;;;;;;38.83;18.35;;;;;;;;;;5087977;28;20040;-60
2021/12/16 05:33:18;;;;;;;39.00;18.63;;;;;;;;;;5088030;28;20036;-61
2021/12/16 05:35:44;;;;;;;34.30;17.52;;;;;;;;;;5092395;28;20506;-61
2021/12/16 05:38:10;;;;;;;33.70;17.85;;;;;;;;;;5086785;28;20040;-62
2021/12/16 05:40:37;;;;;;;39.75;19.40;;;;;;;;;;5085221;28;20042;-62
2021/12/16 05:43:07;;;;;;;33.67;17.08;;;;;;;;;;5089297;28;20040;-61
2021/12/16 05:45:33;;;;;;;31.15;17.42;;;;;;;;;;5073710;28;20083;-63
2021/12/16 05:48:01;;;;;;;25.42;15.35;;;;;;;;;;5080823;28;20046;-62
2021/12/16 05:50:29;;;;;;;29.02;15.77;;;;;;;;;;5087412;28;20039;-61
2021/12/16 05:52:55;;;;;;;28.83;15.43;;;;;;;;;;5088336;28;20122;-62
2021/12/16 05:55:21;;;;;;;28.25;15.73;;;;;;;;;;5087061;28;20040;-61
2021/12/16 05:57:48;;;;;;;33.88;17.55;;;;;;;;;;5088775;28;20031;-64
2021/12/16 06:00:18;;;;;;;31.65;16.42;;;;;;;;;;5084991;28;20058;-62
2021/12/16 06:02:44;;;;;;;27.98;16.00;;;;;;;;;;5087411;28;20118;-62
2021/12/16 06:05:10;;;;;;;29.13;14.85;;;;;;;;;;5087450;28;20044;-60
2021/12/16 06:07:36;;;;;;;25.55;15.23;;;;;;;;;;5087486;28;20043;-61
2021/12/16 06:10:03;;;;;;;22.75;14.93;;;;;;;;;;5087276;28;20040;-62
2021/12/16 06:12:29;;;;;;;25.63;15.50;;;;;;;;;;5089472;28;21286;-61
2021/12/16 06:15:15;;;;;;;25.70;14.88;;;;;;;;;;5087687;28;20066;-63
2021/12/16 06:28:27;;;;;;;34.13;16.02;;;;;;;;;;5079559;28;20044;-63
2021/12/16 06:30:53;;;;;;;25.75;15.93;;;;;;;;;;5083249;28;20134;-63
2021/12/16 06:33:20;;;;;;;26.00;15.35;;;;;;;;;;5081248;28;20037;-63
2021/12/16 06:35:47;;;;;;;29.95;16.92;;;;;;;;;;5086540;28;20062;-61
2021/12/16 06:38:13;;;;;;;25.33;15.13;;;;;;;;;;5092174;28;20115;-62
2021/12/16 06:40:39;;;;;;;25.95;14.43;;;;;;;;;;5095917;28;20036;-61
2021/12/16 06:43:07;;;;;;;25.70;14.65;;;;;;;;;;5096780;28;20502;-63
2021/12/16 06:45:37;;;;;;;28.13;15.48;;;;;;;;;;5097793;28;20071;-63
2021/12/16 06:48:10;;;;;;;23.92;15.45;;;;;;;;;;5094906;28;20040;-63
2021/12/16 06:53:15;;;;;;;31.17;15.70;;;;;;;;;;5096166;28;20097;-62
2021/12/16 06:58:44;;;;;;;27.45;15.38;;;;;;;;;;5027696;28;20133;-61
2021/12/16 07:01:16;;;;;;;27.52;15.52;;;;;;;;;;5023137;28;20574;-63
2021/12/16 07:03:52;;;;;;;29.17;15.75;;;;;;;;;;5024203;28;20142;-61
2021/12/16 07:06:23;;;;;;;29.40;15.55;;;;;;;;;;5024185;28;20044;-62
2021/12/16 07:08:52;;;;;;;25.58;15.20;;;;;;;;;;5024626;28;20091;-63
2021/12/16 07:11:18;;;;;;;35.97;17.95;;;;;;;;;;5024811;28;20073;-63
2021/12/16 07:13:55;;;;;;;23.73;16.20;;;;;;;;;;5027073;28;20037;-62
2021/12/16 07:16:22;;;;;;;25.15;15.13;;;;;;;;;;5027479;28;20046;-64
2021/12/16 07:18:48;;;;;;;30.65;15.43;;;;;;;;;;5029230;28;20048;-63
2021/12/16 07:21:14;;;;;;;26.10;15.73;;;;;;;;;;5023611;28;20096;-63
2021/12/16 07:23:40;;;;;;;27.00;15.30;;;;;;;;;;5020219;28;20823;-62
2021/12/16 07:26:06;;;;;;;37.10;16.75;;;;;;;;;;5027868;28;20125;-62
2021/12/16 07:28:32;;;;;;;28.58;15.75;;;;;;;;;;5023493;28;20136;-62
2021/12/16 07:30:58;;;;;;;28.13;14.38;;;;;;;;;;5022256;28;20577;-63
2021/12/16 07:33:25;;;;;;;25.23;13.90;;;;;;;;;;5022145;28;20483;-64
2021/12/16 07:35:51;;;;;;;25.05;15.05;;;;;;;;;;5077957;28;20044;-62
2021/12/16 07:38:17;;;;;;;28.90;14.88;;;;;;;;;;5090276;28;20036;-62
2021/12/16 07:40:44;;;;;;;40.22;16.85;;;;;;;;;;5090576;28;20051;-60
2021/12/16 07:43:22;;;;;;;36.40;16.30;;;;;;;;;;5090243;28;20128;-62
2021/12/16 07:45:50;;;;;;;45.05;17.77;;;;;;;;;;5089961;28;20047;-62
2021/12/16 07:48:18;;;;;;;62.42;16.73;;;;;;;;;;5088641;28;20055;-63
2021/12/16 07:50:46;;;;;;;166.20;19.75;;;;;;;;;;5090811;28;20048;-60
2021/12/16 07:53:12;;;;;;;95.75;17.40;;;;;;;;;;5090151;28;20502;-62
2021/12/16 07:55:41;;;;;;;109.68;16.50;;;;;;;;;;5090354;28;20067;-64
2021/12/16 07:58:07;;;;;;;137.13;16.60;;;;;;;;;;5089827;28;20055;-63
2021/12/16 08:00:33;;;;;;;115.20;17.05;;;;;;;;;;5089809;28;20035;-62
2021/12/16 08:03:05;;;;;;;133.43;17.52;;;;;;;;;;5089667;28;20044;-62
2021/12/16 08:05:35;;;;;;;117.03;16.13;;;;;;;;;;5088929;28;20105;-61
2021/12/16 08:08:02;;;;;;;164.90;16.08;;;;;;;;;;5089354;28;20046;-63
2021/12/16 08:10:28;;;;;;;299.63;20.50;;;;;;;;;;5089431;28;20142;-61
2021/12/16 08:12:54;;;;;;;208.35;16.77;;;;;;;;;;5089415;28;20390;-63
2021/12/16 08:15:21;;;;;;;358.27;21.92;;;;;;;;;;5089329;28;20043;-62
2021/12/16 08:17:48;;;;;;;287.30;19.25;;;;;;;;;;5089919;28;20031;-61
2021/12/16 08:20:18;;;;;;;356.92;20.40;;;;;;;;;;5071034;28;20043;-62
2021/12/16 08:22:49;;;;;;;314.85;18.65;;;;;;;;;;5088501;28;20052;-61
2021/12/16 08:25:15;;;;;;;248.35;17.13;;;;;;;;;;5089389;28;20040;-62
2021/12/16 08:27:42;;;;;;;239.75;16.92;;;;;;;;;;5089711;28;20036;-63
2021/12/16 08:30:09;;;;;;;228.38;16.35;;;;;;;;;;5088563;28;20084;-64
2021/12/16 08:32:35;;;;;;;261.95;16.80;;;;;;;;;;5090239;28;20043;-63
2021/12/16 08:35:01;;;;;;;474.83;22.80;;;;;;;;;;5091552;28;20559;-61
2021/12/16 08:37:27;;;;;;;198.23;15.93;;;;;;;;;;5091199;28;20032;-62
2021/12/16 08:39:54;;;;;;;241.23;17.52;;;;;;;;;;5091806;28;20512;-62
2021/12/16 08:42:20;;;;;;;378.70;20.23;;;;;;;;;;5091112;28;20040;-62
2021/12/16 08:44:46;;;;;;;335.75;20.63;;;;;;;;;;5091617;28;20039;-63
2021/12/16 08:47:14;;;;;;;430.70;23.85;;;;;;;;;;5091312;28;20043;-64
2021/12/16 08:49:40;;;;;;;284.65;18.98;;;;;;;;;;5091672;28;20036;-63
2021/12/16 08:52:08;;;;;;;285.38;19.33;;;;;;;;;;5089786;28;20083;-62
2021/12/16 08:54:35;;;;;;;84.40;13.27;;;;;;;;;;5087433;28;20119;-62
2021/12/16 08:57:01;;;;;;;151.95;15.05;;;;;;;;;;5088630;28;20089;-62
2021/12/16 08:59:28;;;;;;;206.23;16.10;;;;;;;;;;5088601;28;20106;-63
2021/12/16 09:01:55;;;;;;;220.35;16.98;;;;;;;;;;5088174;28;20048;-62
2021/12/16 09:04:23;;;;;;;206.77;16.67;;;;;;;;;;5089319;28;20040;-63
2021/12/16 09:06:50;;;;;;;120.35;13.90;;;;;;;;;;5100544;28;20042;-63
2021/12/16 09:09:16;;;;;;;114.43;14.20;;;;;;;;;;5088605;28;20040;-63
2021/12/16 09:12:03;;;;;;;220.77;15.38;;;;;;;;;;5089515;28;20040;-62
2021/12/16 09:14:30;;;;;;;58.05;12.05;;;;;;;;;;5089663;28;20046;-62
2021/12/16 09:16:56;;;;;;;88.07;13.07;;;;;;;;;;5088774;28;20024;-63
2021/12/16 09:19:22;;;;;;;129.60;13.18;;;;;;;;;;5088962;28;20119;-61
2021/12/16 09:21:48;;;;;;;93.20;11.98;;;;;;;;;;5088446;28;20062;-62
2021/12/16 09:24:14;;;;;;;65.85;11.55;;;;;;;;;;5087571;28;20111;-62
2021/12/16 09:26:42;;;;;;;75.68;10.80;;;;;;;;;;5089027;28;20070;-64
2021/12/16 09:29:08;;;;;;;153.00;12.90;;;;;;;;;;5088787;28;20043;-62
2021/12/16 09:31:34;;;;;;;231.20;14.60;;;;;;;;;;5087573;28;20047;-63
2021/12/16 09:34:07;;;;;;;156.23;13.50;;;;;;;;;;5087091;28;20456;-62
2021/12/16 09:36:33;;;;;;;78.57;11.32;;;;;;;;;;5087971;28;20056;-62
2021/12/16 09:39:00;;;;;;;194.00;14.82;;;;;;;;;;5088935;28;20040;-64
2021/12/16 09:41:28;;;;;;;85.47;12.18;;;;;;;;;;5089546;28;20047;-62
2021/12/16 09:43:54;;;;;;;127.82;13.82;;;;;;;;;;5087917;28;20050;-61
2021/12/16 09:46:23;;;;;;;78.78;12.18;;;;;;;;;;5088885;28;20465;-64
2021/12/16 09:48:50;;;;;;;89.55;11.93;;;;;;;;;;5088301;28;20035;-61
2021/12/16 09:51:21;;;;;;;97.30;12.47;;;;;;;;;;5089075;28;20024;-62
2021/12/16 09:53:50;;;;;;;81.32;13.23;;;;;;;;;;5087313;28;20355;-62
2021/12/16 09:56:16;;;;;;;113.78;13.57;;;;;;;;;;5089251;28;20169;-62
2021/12/16 09:58:44;;;;;;;100.70;13.27;;;;;;;;;;5088012;28;20759;-62
2021/12/16 10:01:11;;;;;;;88.38;14.07;;;;;;;;;;5087851;28;20114;-63
2021/12/16 10:03:39;;;;;;;37.33;11.25;;;;;;;;;;5089006;28;20046;-63
2021/12/16 10:06:06;;;;;;;33.85;11.90;;;;;;;;;;5088737;28;20399;-64
2021/12/16 10:08:32;;;;;;;96.43;13.40;;;;;;;;;;5088635;28;20039;-65
2021/12/16 10:10:58;;;;;;;121.97;13.63;;;;;;;;;;5088501;28;20127;-62
2021/12/16 10:13:37;;;;;;;58.58;12.77;;;;;;;;;;5089926;28;20098;-62
2021/12/16 10:18:30;;;;;;;60.78;11.90;;;;;;;;;;5089656;28;20044;-62
2021/12/16 10:20:58;;;;;;;103.97;13.90;;;;;;;;;;5089597;28;20081;-64
2021/12/16 10:23:38;;;;;;;62.63;11.70;;;;;;;;;;5089559;28;20044;-62
2021/12/16 10:26:06;;;;;;;66.72;12.20;;;;;;;;;;5089050;28;20131;-63
2021/12/16 10:28:37;;;;;;;77.18;12.00;;;;;;;;;;5088845;28;20040;-62
2021/12/16 10:31:03;;;;;;;41.00;10.98;;;;;;;;;;5088296;28;20424;-62
2021/12/16 10:33:39;;;;;;;124.10;12.45;;;;;;;;;;5089187;28;20094;-63
2021/12/16 10:36:17;;;;;;;42.83;11.13;;;;;;;;;;5088360;28;20031;-63
2021/12/16 10:38:46;;;;;;;20.38;10.27;;;;;;;;;;5086353;28;20079;-62
2021/12/16 10:41:16;;;;;;;130.73;14.32;;;;;;;;;;5088160;28;20044;-60
2021/12/16 10:43:47;;;;;;;32.33;11.45;;;;;;;;;;5088383;28;20127;-64
2021/12/16 10:46:18;;;;;;;85.20;13.00;;;;;;;;;;5088837;28;20039;-64
2021/12/16 10:48:47;;;;;;;126.20;13.27;;;;;;;;;;5088364;28;20539;-63
2021/12/16 10:51:18;;;;;;;41.03;12.13;;;;;;;;;;5088601;28;20405;-62
2021/12/16 10:53:57;;;;;;;78.00;12.13;;;;;;;;;;5088002;28;20060;-63
2021/12/16 10:56:29;;;;;;;122.20;13.90;;;;;;;;;;5090350;28;20127;-62
2021/12/16 10:59:01;;;;;;;192.10;14.27;;;;;;;;;;5090055;28;20063;-63
2021/12/16 11:01:32;;;;;;;144.23;13.75;;;;;;;;;;5089344;28;20040;-63
2021/12/16 11:03:59;;;;;;;48.25;12.95;;;;;;;;;;5090910;28;20035;-63
2021/12/16 11:06:32;;;;;;;66.15;13.45;;;;;;;;;;5090251;28;20046;-61
2021/12/16 11:09:17;;;;;;;41.03;13.18;;;;;;;;;;5091836;28;20064;-62
2021/12/16 11:11:43;;;;;;;25.73;10.90;;;;;;;;;;5090230;28;20127;-62
2021/12/16 11:14:09;;;;;;;37.20;11.65;;;;;;;;;;5091914;28;20115;-63
2021/12/16 11:16:36;;;;;;;31.90;11.63;;;;;;;;;;5092958;28;20028;-63
2021/12/16 11:19:03;;;;;;;72.53;11.57;;;;;;;;;;5091635;28;20526;-63
2021/12/16 11:21:39;;;;;;;37.03;12.38;;;;;;;;;;5091835;28;20521;-63
2021/12/16 11:24:26;;;;;;;60.03;12.02;;;8.30;99.90;;;;;;5091605;28;20444;-64
2021/12/16 11:26:52;;;;;;;42.55;11.45;;;;;;;;;;5092575;28;20111;-61
2021/12/16 11:29:19;;;;;;;23.45;10.52;;;;;;;;;;5091831;28;20036;-61
2021/12/16 11:31:49;;;;;;;43.53;12.05;;;;;;;;;;5092123;28;20064;-61
2021/12/16 11:34:16;;;;;;;79.97;10.93;;;;;;;;;;5092212;28;20036;-61
2021/12/16 11:36:44;;;;;;;41.70;11.30;;;;;;;;;;5091896;28;20115;-60
2021/12/16 11:39:12;;;;;;;26.23;10.73;;;;;;;;;;5088750;28;20097;-60
2021/12/16 11:41:43;;;;;;;34.75;10.38;;;;;;;;;;5091569;28;20028;-62
2021/12/16 11:44:17;;;;;;;19.23;10.90;;;;;;;;;;5091774;28;20043;-62
2021/12/16 11:46:50;;;;;;;20.42;10.32;;;;;;;;;;5091282;28;20040;-62
2021/12/16 11:49:29;;;;;;;18.60;10.57;;;;;;;;;;5088681;28;20119;-61
2021/12/16 11:51:58;;;;;;;28.17;11.00;;;;;;;;;;5089592;28;20040;-62
2021/12/16 11:54:25;;;;;;;24.73;11.35;;;;;;;;;;5091046;28;20052;-62
2021/12/16 11:56:57;;;;;;;17.50;10.50;;;;;;;;;;5090063;28;20433;-62
2021/12/16 11:59:31;;;;;;;18.73;10.30;;;;;;;;;;5089343;28;20043;-63
2021/12/16 12:01:57;;;;;;;21.73;10.40;;;;;;;;;;5087228;28;20043;-62
2021/12/16 12:04:25;;;;;;;18.73;10.98;;;;;;;;;;5090444;28;20047;-61
2021/12/16 12:06:51;;;;;;;31.10;12.50;;;;;;;;;;5069646;28;20035;-62
2021/12/16 12:09:17;;;;;;;24.25;13.20;;;;;;;;;;5090823;28;20043;-64
2021/12/16 12:11:44;;;;;;;24.88;14.05;;;;;;;;;;5091072;28;20508;-63
2021/12/16 12:14:12;;;;;;;31.38;14.10;;;;;;;;;;5088447;28;20067;-61
2021/12/16 12:16:43;;;;;;;21.23;12.00;;;;;;;;;;5090037;28;20047;-61
2021/12/16 12:19:09;;;;;;;37.05;12.57;;;;;;;;;;5090510;28;20039;-61
2021/12/16 12:21:37;;;;;;;42.35;12.40;;;;;;;;;;5088968;28;20040;-63
2021/12/16 12:24:18;;;;;;;37.72;12.95;;;;;;;;;;5090228;28;20147;-59
2021/12/16 12:26:44;;;;;;;30.77;13.15;;;;;;;;;;5091035;28;20784;-63
2021/12/16 12:29:12;;;;;;;22.50;12.77;;;;;;;;;;5090222;28;20112;-60
2021/12/16 12:31:41;;;;;;;30.30;12.90;;;;;;;;;;5090386;28;20048;-62
2021/12/16 12:34:07;;;;;;;21.65;12.02;;;;;;;;;;5090199;28;20417;-60
2021/12/16 12:36:33;;;;;;;33.55;12.20;;;;;;;;;;5090468;28;20398;-61
2021/12/16 12:39:00;;;;;;;19.30;12.05;;;;;;;;;;5089573;28;20043;-61
2021/12/16 12:41:27;;;;;;;62.33;13.48;;;;;;;;;;5088791;28;20048;-63
2021/12/16 12:43:54;;;;;;;119.78;13.52;;;;;;;;;;5090191;28;20032;-62
2021/12/16 12:46:20;;;;;;;91.00;14.18;;;;;;;;;;5089559;28;20036;-62
2021/12/16 12:48:47;;;;;;;41.38;12.30;;;8.50;99.90;;;;;;5089724;28;20036;-61
2021/12/16 12:51:13;;;;;;;61.50;14.60;;;;;;;;;;5090228;28;20112;-62
2021/12/16 12:53:46;;;;;;;66.13;13.63;;;;;;;;;;5088905;28;20059;-61
2021/12/16 12:56:12;;;;;;;;;;;;;;;;;;5089944;28;20111;-62
2021/12/16 12:58:52;;;;;;;70.18;14.27;;;;;;;;;;5090482;28;20049;-60
2021/12/16 13:01:18;;;;;;;45.28;13.98;;;;;;;;;;5090966;28;20060;-62
2021/12/16 13:03:45;;;;;;;79.10;13.40;;;;;;;;;;5090703;28;20083;-61
2021/12/16 13:06:17;;;;;;;82.20;13.60;;;;;;;;;;5091354;28;20047;-61
2021/12/16 13:08:48;;;;;;;107.97;15.40;;;;;;;;;;5091070;28;20044;-61
2021/12/16 13:11:40;;;;;;;96.82;13.15;;;;;;;;;;5090253;28;20036;-62
2021/12/16 13:25:49;;;;;;;52.80;12.77;;;;;;;;;;5089582;28;20048;-62
2021/12/16 13:28:03;;;;;;;42.15;9.00;;;;;;;;;;5088759;28;20052;-62
2021/12/16 13:30:32;;;;;;;73.28;10.48;;;;;;;;;;5089858;28;20055;-61
2021/12/16 13:33:20;;;;;;;84.03;10.88;;;;;;;;;;5089571;28;20036;-62
2021/12/16 13:35:50;;;;;;;62.67;8.88;;;;;;;;;;5087735;28;20059;-61
2021/12/16 13:38:19;;;;;;;23.63;7.30;;;;;;;;;;5089323;28;20040;-61
2021/12/16 13:40:46;;;;;;;87.40;8.77;;;;;;;;;;5089502;28;20036;-61
2021/12/16 13:43:21;;;;;;;29.20;7.78;;;;;;;;;;5089908;28;20040;-60
2021/12/16 13:45:55;;;;;;;71.90;8.55;;;;;;;;;;5089639;28;20043;-62
2021/12/16 13:58:03;;;;;;;41.08;7.80;;;;;;;;;;5088536;28;20040;-61
2021/12/16 14:03:41;;;;;;;49.75;7.35;;;;;;;;;;5087598;28;20125;-61
2021/12/16 14:05:52;;;;;;;61.37;8.90;;;;;;;;;;5080563;28;20059;-61
2021/12/16 14:08:54;;;;;;;102.93;10.05;;;;;;;;;;5087513;28;20158;-61
2021/12/16 14:14:41;;;;;;;67.05;7.63;;;;;;;;;;5024032;28;20565;-60
2021/12/16 14:17:16;;;;;;;80.97;8.48;;;;;;;;;;5025455;28;20048;-61
2021/12/16 14:47:09;;;;;;;30.20;9.60;;;;;;;;;;5009755;28;20049;-62
2021/12/16 14:49:37;;;;;;;64.38;9.68;;;;;;;;;;5008955;28;20073;-62
2021/12/16 14:52:04;;;;;;;57.05;9.15;;;;;;;;;;5009317;28;20050;-61
2021/12/16 14:54:34;;;;;;;28.15;8.88;;;;;;;;;;5009009;28;20050;-61
2021/12/16 14:57:01;;;;;;;29.33;8.88;;;;;;;;;;4993224;28;20073;-61
2021/12/16 14:59:29;;;;;;;39.55;9.25;;;;;;;;;;5009618;28;20045;-61
2021/12/16 15:02:00;;;;;;;32.05;8.95;;;;;;;;;;5012582;28;20108;-61
2021/12/16 15:04:27;;;;;;;29.52;9.27;;;;;;;;;;4995530;28;20062;-60
2021/12/16 15:07:03;;;;;;;53.38;9.93;;;;;;;;;;4994261;28;20050;-61
2021/12/16 15:09:32;;;;;;;42.58;11.02;;;;;;;;;;5010495;28;20077;-62
2021/12/16 15:35:44;;;;;;;60.17;10.63;;;;;;;;;;5091253;28;20052;-61
2021/12/16 15:45:01;;;;;;;28.70;10.18;;;;;;;;;;5090878;28;20444;-60
2021/12/16 15:47:27;;;;;;;39.78;10.85;;;;;;;;;;5090395;28;20055;-60
2021/12/16 15:49:54;;;;;;;29.25;10.88;;;;;;;;;;5090329;28;20040;-62
2021/12/16 15:52:20;;;;;;;34.55;10.95;;;;;;;;;;5088579;28;20063;-62
2021/12/16 15:54:50;;;;;;;47.47;9.73;;;;;;;;;;5089989;28;20505;-62
2021/12/16 15:57:17;;;;;;;43.22;10.00;;;;;;;;;;5090530;28;20096;-61
2021/12/16 15:59:47;;;;;;;54.08;10.80;;;;;;;;;;5089476;28;20606;-61
2021/12/16 16:02:15;;;;;;;57.45;11.50;;;;;;;;;;5091565;28;20510;-65
2021/12/16 16:04:42;;;;;;;131.85;13.52;;;;;;;;;;5088916;28;20478;-62
2021/12/16 16:07:09;;;;;;;144.15;13.50;;;;;;;;;;5090197;28;20048;-62
2021/12/16 16:09:37;;;;;;;111.40;12.75;;;;;;;;;;5089425;28;20048;-63
2021/12/16 16:12:04;;;;;;;76.68;12.30;;;;;;;;;;5089896;28;20047;-63
2021/12/16 16:14:32;;;;;;;58.20;11.57;;;;;;;;;;5090284;28;20036;-62
2021/12/16 16:17:00;;;;;;;71.70;11.95;;;;;;;;;;5089267;28;20048;-63
2021/12/16 16:19:32;;;;;;;102.90;12.40;;;;;;;;;;5090614;28;20556;-62
2021/12/16 16:22:02;;;;;;;68.20;12.65;;;;;;;;;;5088419;28;20516;-62
2021/12/16 16:24:33;;;;;;;60.92;11.52;;;;;;;;;;5089985;28;20044;-63
2021/12/16 16:27:00;;;;;;;49.97;10.63;;;;;;;;;;5087669;28;20032;-63
2021/12/16 16:29:29;;;;;;;96.13;12.40;;;;;;;;;;5089069;28;20040;-61
2021/12/16 16:31:55;;;;;;;41.00;11.82;;;;;;;;;;5089052;28;20128;-62
2021/12/16 16:34:23;;;;;;;104.35;12.40;;;;;;;;;;5088413;28;20089;-61
2021/12/16 16:36:51;;;;;;;60.28;11.57;;;;;;;;;;5088389;28;20032;-62
2021/12/16 16:39:19;;;;;;;52.88;11.52;;;;;;;;;;5087738;28;20422;-60
2021/12/16 16:41:50;;;;;;;98.28;11.95;;;;;;;;;;5088566;28;20127;-60
2021/12/16 16:44:17;;;;;;;81.28;12.18;;;;;;;;;;5088196;28;20044;-63
2021/12/16 16:46:51;;;;;;;40.88;10.90;;;;;;;;;;5088161;28;20038;-61
2021/12/16 16:49:26;;;;;;;130.48;12.82;;;;;;;;;;5087921;28;20051;-61
2021/12/16 16:51:53;;;;;;;202.00;14.15;;;;;;;;;;5086398;28;20040;-61
2021/12/16 16:54:22;;;;;;;59.53;11.23;;;;;;;;;;5087692;28;20101;-62
2021/12/16 16:56:53;;;;;;;130.95;12.25;;;;;;;;;;5088600;28;20028;-61
2021/12/16 16:59:30;;;;;;;64.45;11.45;;;;;;;;;;5088216;28;20105;-61
2021/12/16 17:01:57;;;;;;;31.50;10.60;;;;;;;;;;5087619;28;20115;-61
2021/12/16 17:04:24;;;;;;;25.17;11.07;;;;;;;;;;5087940;28;20502;-61
2021/12/16 17:06:54;;;;;;;49.38;10.93;;;;;;;;;;5087838;28;20100;-61
2021/12/16 17:09:21;;;;;;;46.40;12.18;;;;;;;;;;5088679;28;20868;-61
2021/12/16 17:11:48;;;;;;;29.10;11.70;;;;;;;;;;5087820;28;20089;-62
2021/12/16 17:14:18;;;;;;;37.00;11.02;;;;;;;;;;5088909;28;20539;-60
2021/12/16 17:19:37;;;;;;;41.85;11.95;;;;;;;;;;5086853;28;20036;-61
2021/12/16 17:22:04;;;;;;;69.30;13.15;;;;;;;;;;5086619;28;20036;-62
2021/12/16 17:24:31;;;;;;;38.13;12.50;;;;;;;;;;5085634;28;20048;-61
2021/12/16 17:27:02;;;;;;;40.53;12.93;;;;;;;;;;5087494;28;20040;-61
2021/12/16 17:29:30;;;;;;;62.20;13.35;;;;;;;;;;5086977;28;20131;-61
2021/12/16 17:32:10;;;;;;;37.40;11.75;;;;;;;;;;5088854;28;20085;-61
2021/12/16 17:34:56;;;;;;;35.90;12.15;;;;;;;;;;5088583;28;20051;-62
2021/12/16 17:37:25;;;;;;;41.65;13.10;;;;;;;;;;5086510;28;20509;-62
2021/12/16 17:40:03;;;;;;;26.38;11.77;;;;;;;;;;5088324;28;20048;-61
2021/12/16 17:42:34;;;;;;;25.27;12.30;;;;;;;;;;5088025;28;20484;-60
2021/12/16 17:45:06;;;;;;;30.40;12.73;;;;;;;;;;5088493;28;20044;-60
2021/12/16 17:47:33;;;;;;;33.50;11.75;;;;;;;;;;5089361;28;20043;-60
2021/12/16 17:50:00;;;;;;;38.38;12.35;;;;;;;;;;5087504;28;20123;-62
2021/12/16 17:52:27;;;;;;;27.40;12.02;;;;;;;;;;5089326;28;20044;-60
2021/12/16 17:54:59;;;;;;;27.83;12.23;;;;;;;;;;5088770;28;20044;-61
2021/12/16 17:57:37;;;;;;;22.40;11.77;;;;;;;;;;5088133;28;20036;-61
2021/12/16 18:00:07;;;;;;;24.58;12.27;;;;;;;;;;5087170;28;20123;-61
2021/12/16 18:02:33;;;;;;;27.63;13.10;;;;;;;;;;5087178;28;20548;-61
2021/12/16 18:05:01;;;;;;;27.25;13.98;;;;;;;;;;5087394;28;20033;-62
2021/12/16 18:07:28;;;;;;;30.30;14.27;;;;;;;;;;5087457;28;20379;-61
2021/12/16 18:09:55;;;;;;;29.92;13.27;;;;;;;;;;5086920;28;20546;-61
2021/12/16 18:12:32;;;;;;;32.20;13.07;;;;;;;;;;5088351;28;20043;-61
2021/12/16 18:15:03;;;;;;;27.42;12.73;;;;;;;;;;5087863;28;20036;-61
2021/12/16 18:17:33;;;;;;;28.75;12.85;;;;;;;;;;5087335;28;20052;-60
2021/12/16 18:20:08;;;;;;;36.30;13.60;;;;;;;;;;5088175;28;20040;-61
2021/12/16 18:22:37;;;;;;;31.48;13.32;;;;;;;;;;5087630;28;20436;-60
2021/12/16 18:25:21;;;;;;;28.90;13.65;;;;;;;;;;5088166;28;20051;-61
2021/12/16 18:27:56;;;;;;;29.80;14.35;;;;;;;;;;5087879;28;20664;-61
2021/12/16 18:30:32;;;;;;;28.27;13.32;;;;;;;;;;5087071;28;20126;-62
2021/12/16 18:33:00;;;;;;;29.48;13.15;;;;;;;;;;5087830;28;20092;-60
2021/12/16 18:35:29;;;;;;;30.50;13.77;;;;;;;;;;5088511;28;20064;-60